createdAt,value
2019-03-08T00:01:43.937Z,5.67
2019-03-08T00:04:14.408Z,5.63
2019-03-08T00:06:44.138Z,5.60
2019-03-08T00:09:13.875Z,6.60
2019-03-08T00:11:43.521Z,5.93
2019-03-08T00:14:13.201Z,5.57
2019-03-08T00:16:42.849Z,6.30
2019-03-08T00:19:12.636Z,5.90
2019-03-08T00:21:42.298Z,6.33
2019-03-08T00:24:12.031Z,5.80
2019-03-08T00:26:41.697Z,5.60
2019-03-08T00:29:11.587Z,6.10
2019-03-08T00:31:41.276Z,5.57
2019-03-08T00:34:11.002Z,6.30
2019-03-08T00:36:40.916Z,6.30
2019-03-08T00:39:10.648Z,6.58
2019-03-08T00:41:40.379Z,6.60
2019-03-08T00:44:10.226Z,6.50
2019-03-08T00:46:40.851Z,6.17
2019-03-08T00:49:10.516Z,5.80
2019-03-08T00:51:40.174Z,5.50
2019-03-08T00:54:09.860Z,4.90
2019-03-08T00:56:39.848Z,4.57
2019-03-08T00:59:09.746Z,3.40
2019-03-08T01:01:39.393Z,3.53
2019-03-08T01:04:09.085Z,3.47
2019-03-08T01:06:38.755Z,2.50
2019-03-08T01:09:09.108Z,3.00
2019-03-08T01:11:40.918Z,3.10
2019-03-08T01:14:10.586Z,3.10
2019-03-08T01:16:40.251Z,2.90
2019-03-08T01:19:10.339Z,3.07
2019-03-08T01:21:40.542Z,3.00
2019-03-08T01:24:10.509Z,2.83
2019-03-08T01:26:40.419Z,3.90
2019-03-08T01:29:10.147Z,4.00
2019-03-08T01:31:40.086Z,4.27
2019-03-08T01:34:09.748Z,4.58
2019-03-08T01:36:39.409Z,4.63
2019-03-08T01:39:09.455Z,4.13
2019-03-08T01:41:39.778Z,4.37
2019-03-08T01:44:09.508Z,4.43
2019-03-08T01:46:39.171Z,4.97
2019-03-08T01:49:09.240Z,4.63
2019-03-08T01:51:38.909Z,4.10
2019-03-08T01:54:08.567Z,4.07
2019-03-08T01:56:38.317Z,4.23
2019-03-08T01:59:08.953Z,4.43
2019-03-08T02:01:38.690Z,4.23
2019-03-08T02:04:08.602Z,4.03
2019-03-08T02:06:38.278Z,4.30
2019-03-08T02:09:08.005Z,4.87
2019-03-08T02:11:38.325Z,4.63
2019-03-08T02:14:08.046Z,4.33
2019-03-08T02:16:38.019Z,3.90
2019-03-08T02:19:07.746Z,4.15
2019-03-08T02:21:37.479Z,4.13
2019-03-08T02:24:07.250Z,4.57
2019-03-08T02:26:37.001Z,4.08
2019-03-08T02:29:06.884Z,4.17
2019-03-08T02:31:36.730Z,4.07
2019-03-08T02:34:06.378Z,4.33
2019-03-08T02:36:36.045Z,4.53
2019-03-08T02:39:07.674Z,4.63
2019-03-08T02:41:38.105Z,5.07
2019-03-08T02:44:08.130Z,4.25
2019-03-08T02:46:37.797Z,4.97
2019-03-08T02:49:08.510Z,5.10
2019-03-08T02:51:38.330Z,4.63
2019-03-08T02:54:07.977Z,4.40
2019-03-08T02:56:37.638Z,5.10
2019-03-08T02:59:07.378Z,4.13
2019-03-08T03:01:37.043Z,4.93
2019-03-08T03:04:06.778Z,5.30
2019-03-08T03:06:36.596Z,4.33
2019-03-08T03:09:06.764Z,5.07
2019-03-08T03:11:38.053Z,5.47
2019-03-08T03:14:08.918Z,5.23
2019-03-08T03:16:38.597Z,4.37
2019-03-08T03:19:08.255Z,4.45
2019-03-08T03:21:38.094Z,4.97
2019-03-08T03:24:08.088Z,5.70
2019-03-08T03:26:37.774Z,4.42
2019-03-08T03:29:07.755Z,4.80
2019-03-08T03:31:37.422Z,4.10
2019-03-08T03:34:07.323Z,4.27
2019-03-08T03:36:36.988Z,4.40
2019-03-08T03:39:07.591Z,4.93
2019-03-08T03:41:37.312Z,4.43
2019-03-08T03:44:06.999Z,5.60
2019-03-08T03:46:36.763Z,5.20
2019-03-08T03:49:09.579Z,5.00
2019-03-08T03:51:39.247Z,5.03
2019-03-08T03:54:09.045Z,5.30
2019-03-08T03:56:38.704Z,5.40
2019-03-08T03:59:08.375Z,6.10
2019-03-08T04:01:42.134Z,5.27
2019-03-08T04:04:11.778Z,5.13
2019-03-08T04:06:41.436Z,5.80
2019-03-08T04:09:12.334Z,6.47
2019-03-08T04:11:42.020Z,5.85
2019-03-08T04:14:11.934Z,6.00
2019-03-08T04:16:41.665Z,6.85
2019-03-08T04:19:11.326Z,6.47
2019-03-08T04:21:41.016Z,6.00
2019-03-08T04:24:10.667Z,5.10
2019-03-08T04:26:40.567Z,6.50
2019-03-08T04:29:11.223Z,5.35
2019-03-08T04:31:40.882Z,5.73
2019-03-08T04:34:10.767Z,4.47
2019-03-08T04:36:40.428Z,4.17
2019-03-08T04:39:11.052Z,4.40
2019-03-08T04:41:40.731Z,4.83
2019-03-08T04:44:10.391Z,4.72
2019-03-08T04:46:41.359Z,5.10
2019-03-08T04:49:11.104Z,6.13
2019-03-08T04:51:40.782Z,7.33
2019-03-08T04:54:10.514Z,7.10
2019-03-08T04:56:40.391Z,6.50
2019-03-08T04:59:10.046Z,6.78
2019-03-08T05:01:40.253Z,7.25
2019-03-08T05:04:10.269Z,6.20
2019-03-08T05:06:39.944Z,6.03
2019-03-08T05:09:09.742Z,5.90
2019-03-08T05:11:39.403Z,6.97
2019-03-08T05:14:09.076Z,6.50
2019-03-08T05:16:38.734Z,7.03
2019-03-08T05:19:08.403Z,6.80
2019-03-08T05:21:38.062Z,6.70
2019-03-08T05:24:07.946Z,6.93
2019-03-08T05:26:37.604Z,6.33
2019-03-08T05:29:07.519Z,7.17
2019-03-08T05:31:37.194Z,6.13
2019-03-08T05:34:06.862Z,6.73
2019-03-08T05:36:36.538Z,6.83
2019-03-08T05:39:11.041Z,6.57
2019-03-08T05:41:40.705Z,6.77
2019-03-08T05:44:10.704Z,7.17
2019-03-08T05:46:40.604Z,7.77
2019-03-08T05:49:10.270Z,8.38
2019-03-08T05:51:39.953Z,7.53
2019-03-08T05:54:09.619Z,8.15
2019-03-08T05:56:40.264Z,6.60
2019-03-08T05:59:10.894Z,8.17
2019-03-08T06:01:40.802Z,8.10
2019-03-08T06:04:10.635Z,7.53
2019-03-08T06:06:40.299Z,7.93
2019-03-08T06:09:11.545Z,7.63
2019-03-08T06:11:41.182Z,6.67
2019-03-08T06:14:10.835Z,7.72
2019-03-08T06:16:40.758Z,7.13
2019-03-08T06:19:10.412Z,7.53
2019-03-08T06:21:40.333Z,8.80
2019-03-08T06:24:10.292Z,8.90
2019-03-08T06:26:40.008Z,7.70
2019-03-08T06:29:09.694Z,7.25
2019-03-08T06:31:39.378Z,8.07
2019-03-08T06:34:09.047Z,8.23
2019-03-08T06:36:38.711Z,6.77
2019-03-08T06:39:08.616Z,8.70
2019-03-08T06:41:38.268Z,7.63
2019-03-08T06:44:07.937Z,8.00
2019-03-08T06:46:37.776Z,6.87
2019-03-08T06:49:07.447Z,7.00
2019-03-08T06:51:37.117Z,7.30
2019-03-08T06:54:06.876Z,7.30
2019-03-08T06:56:36.532Z,7.93
2019-03-08T06:59:10.983Z,8.70
2019-03-08T07:01:41.752Z,4.33
2019-03-08T07:04:11.505Z,4.47
2019-03-08T07:06:41.174Z,3.70
2019-03-08T07:09:10.956Z,4.10
2019-03-08T07:11:40.615Z,4.80
2019-03-08T07:14:10.621Z,4.30
2019-03-08T07:16:40.538Z,4.13
2019-03-08T07:19:10.210Z,4.03
2019-03-08T07:22:04.688Z,4.20
2019-03-08T07:24:41.297Z,4.63
2019-03-08T07:27:26.798Z,5.40
2019-03-08T07:30:15.133Z,4.80
2019-03-08T07:32:55.897Z,4.13
2019-03-08T07:35:53.897Z,4.83
2019-03-08T07:38:41.243Z,5.23
2019-03-08T07:41:29.022Z,5.53
2019-03-08T07:44:17.944Z,4.77
2019-03-08T07:47:18.940Z,5.10
2019-03-08T07:50:03.903Z,5.20
2019-03-08T07:52:51.064Z,4.53
2019-03-08T07:55:39.880Z,5.72
2019-03-08T07:58:16.157Z,6.35
2019-03-08T08:01:09.604Z,6.37
2019-03-08T08:03:57.798Z,5.73
2019-03-08T08:06:32.839Z,5.30
2019-03-08T08:09:09.017Z,5.65
2019-03-08T08:11:48.446Z,6.33
2019-03-08T08:14:40.230Z,6.40
2019-03-08T08:17:31.940Z,6.50
2019-03-08T08:20:19.264Z,6.87
2019-03-08T08:23:03.550Z,7.67
2019-03-08T08:26:01.169Z,6.37
2019-03-08T08:28:50.306Z,5.80
2019-03-08T08:31:26.996Z,6.17
2019-03-08T08:34:12.722Z,6.13
2019-03-08T08:36:51.289Z,5.57
2019-03-08T08:39:41.048Z,5.72
2019-03-08T08:42:20.760Z,5.83
2019-03-08T08:45:06.464Z,5.67
2019-03-08T08:47:52.760Z,6.03
2019-03-08T08:50:35.577Z,4.83
2019-03-08T08:53:23.026Z,6.03
2019-03-08T08:56:14.854Z,5.07
2019-03-08T08:59:00.702Z,5.27
2019-03-08T09:01:55.888Z,5.57
2019-03-08T09:04:33.144Z,6.23
2019-03-08T09:07:14.315Z,5.40
2019-03-08T09:09:53.083Z,6.03
2019-03-08T09:12:28.797Z,6.22
2019-03-08T09:15:13.285Z,5.63
2019-03-08T09:18:00.723Z,5.40
2019-03-08T09:20:41.661Z,6.30
2019-03-08T09:23:30.598Z,6.00
2019-03-08T09:26:19.381Z,5.47
2019-03-08T09:28:54.574Z,5.50
2019-03-08T09:31:31.781Z,5.67
2019-03-08T09:34:17.797Z,5.20
2019-03-08T09:37:18.837Z,5.40
2019-03-08T09:40:01.265Z,5.20
2019-03-08T09:42:40.143Z,5.57
2019-03-08T09:45:31.826Z,5.90
2019-03-08T09:48:08.922Z,5.00
2019-03-08T09:50:51.336Z,4.03
2019-03-08T09:53:29.259Z,3.23
2019-03-08T09:56:16.847Z,4.07
2019-03-08T09:59:02.816Z,4.43
2019-03-08T10:01:54.273Z,4.03
2019-03-08T10:04:50.498Z,4.63
2019-03-08T10:07:30.878Z,4.37
2019-03-08T10:10:23.450Z,4.03
2019-03-08T10:13:10.555Z,4.90
2019-03-08T10:15:59.310Z,5.00
2019-03-08T10:19:03.201Z,5.50
2019-03-08T10:21:45.223Z,5.37
2019-03-08T10:24:33.229Z,5.77
2019-03-08T10:27:14.633Z,5.07
2019-03-08T10:29:55.817Z,4.83
2019-03-08T10:32:43.096Z,5.17
2019-03-08T10:35:32.200Z,5.53
2019-03-08T10:38:22.389Z,5.20
2019-03-08T10:41:08.177Z,5.50
2019-03-08T10:43:43.623Z,3.23
2019-03-08T10:46:27.496Z,3.83
2019-03-08T10:49:19.136Z,3.00
2019-03-08T10:52:17.377Z,3.33
2019-03-08T10:54:58.531Z,4.70
2019-03-08T10:57:39.776Z,3.80
2019-03-08T11:00:29.228Z,3.33
2019-03-08T11:03:13.960Z,4.87
2019-03-08T11:05:51.742Z,3.87
2019-03-08T11:08:30.008Z,3.77
2019-03-08T11:11:15.724Z,3.87
2019-03-08T11:14:02.338Z,7.00
2019-03-08T11:16:41.080Z,4.00
2019-03-08T11:19:21.656Z,4.47
2019-03-08T11:22:09.041Z,4.93
2019-03-08T11:24:56.154Z,4.17
2019-03-08T11:27:51.311Z,4.67
2019-03-08T11:30:31.492Z,4.35
2019-03-08T11:33:29.353Z,4.33
2019-03-08T11:36:18.059Z,4.23
2019-03-08T11:39:04.512Z,3.85
2019-03-08T11:41:53.221Z,5.12
2019-03-08T11:44:32.575Z,5.23
2019-03-08T11:47:09.518Z,4.60
2019-03-08T11:50:07.404Z,4.90
2019-03-08T11:52:54.840Z,5.07
2019-03-08T11:55:41.947Z,4.33
2019-03-08T11:58:26.816Z,4.80
2019-03-08T12:01:04.815Z,5.03
2019-03-08T12:03:55.154Z,4.27
2019-03-08T12:06:44.266Z,4.87
2019-03-08T12:09:26.165Z,4.57
2019-03-08T12:12:17.763Z,4.35
2019-03-08T12:15:04.993Z,4.70
2019-03-08T12:17:47.669Z,4.10
2019-03-08T12:20:36.710Z,4.90
2019-03-08T12:23:12.295Z,4.77
2019-03-08T12:26:01.089Z,4.13
2019-03-08T12:28:49.800Z,3.83
2019-03-08T12:31:31.348Z,3.80
2019-03-08T12:34:09.628Z,3.83
2019-03-08T12:36:45.312Z,4.33
2019-03-08T12:39:33.141Z,3.33
2019-03-08T12:42:25.042Z,3.50
2019-03-08T12:45:19.452Z,3.93
2019-03-08T12:48:06.554Z,3.70
2019-03-08T12:50:58.020Z,4.23
2019-03-08T12:53:58.820Z,4.23
2019-03-08T12:56:46.370Z,4.23
2019-03-08T12:59:26.519Z,3.77
2019-03-08T13:02:09.740Z,3.47
2019-03-08T13:04:53.690Z,4.00
2019-03-08T13:07:42.465Z,3.10
2019-03-08T13:10:15.190Z,3.03
2019-03-08T13:12:45.003Z,3.30
2019-03-08T13:15:15.090Z,3.40
2019-03-08T13:17:44.889Z,3.60
2019-03-08T13:20:16.205Z,2.97
2019-03-08T13:22:45.952Z,3.87
2019-03-08T13:25:15.795Z,4.90
2019-03-08T13:27:45.467Z,7.97
2019-03-08T13:30:17.613Z,2.77
2019-03-08T13:32:47.907Z,4.50
2019-03-08T13:35:17.790Z,3.92
2019-03-08T13:37:47.452Z,3.67
2019-03-08T13:40:17.609Z,3.97
2019-03-08T13:42:47.302Z,2.97
2019-03-08T13:45:18.440Z,3.40
2019-03-08T13:47:48.132Z,3.47
2019-03-08T13:50:17.999Z,2.97
2019-03-08T13:52:47.837Z,2.70
2019-03-08T13:55:17.849Z,3.60
2019-03-08T13:57:47.582Z,4.20
2019-03-08T14:00:18.413Z,3.77
2019-03-08T14:02:48.383Z,4.27
2019-03-08T14:05:18.211Z,3.30
2019-03-08T14:07:47.965Z,3.47
2019-03-08T14:10:17.795Z,4.00
2019-03-08T14:12:47.641Z,3.93
2019-03-08T14:15:17.485Z,3.80
2019-03-08T14:17:47.512Z,3.73
2019-03-08T14:20:18.424Z,3.25
2019-03-08T14:22:48.442Z,4.03
2019-03-08T14:25:18.192Z,2.73
2019-03-08T14:27:48.133Z,3.33
2019-03-08T14:30:19.017Z,3.40
2019-03-08T14:32:49.020Z,2.67
2019-03-08T14:35:18.776Z,2.90
2019-03-08T14:37:52.056Z,2.87
2019-03-08T14:40:37.917Z,2.83
2019-03-08T14:43:22.405Z,3.90
2019-03-08T14:46:08.539Z,3.40
2019-03-08T14:48:42.478Z,3.00
2019-03-08T14:51:13.002Z,3.30
2019-03-08T14:53:42.184Z,3.77
2019-03-08T14:56:13.315Z,3.53
2019-03-08T14:58:43.057Z,4.37
2019-03-08T15:01:13.089Z,3.90
2019-03-08T15:03:43.857Z,4.00
2019-03-08T15:06:13.751Z,5.05
2019-03-08T15:08:44.038Z,2.60
2019-03-08T15:11:13.783Z,3.60
2019-03-08T15:13:43.626Z,3.77
2019-03-08T15:16:13.567Z,5.50
2019-03-08T15:18:43.754Z,3.53
2019-03-08T15:21:13.586Z,3.58
2019-03-08T15:23:43.261Z,3.03
2019-03-08T15:26:13.131Z,2.65
2019-03-08T15:28:42.803Z,3.70
2019-03-08T15:31:12.490Z,4.20
2019-03-08T15:33:42.153Z,3.20
2019-03-08T15:36:11.832Z,5.35
2019-03-08T15:38:42.358Z,4.03
2019-03-08T15:41:12.038Z,4.65
2019-03-08T15:43:41.801Z,4.57
2019-03-08T15:46:11.476Z,4.20
2019-03-08T15:48:41.160Z,4.57
2019-03-08T15:51:11.064Z,3.80
2019-03-08T15:53:40.781Z,3.33
2019-03-08T15:56:10.545Z,4.33
2019-03-08T15:58:40.617Z,5.30
2019-03-08T16:01:10.467Z,4.17
2019-03-08T16:03:40.871Z,9.33
2019-03-08T16:06:10.699Z,7.07
2019-03-08T16:08:40.908Z,3.70
2019-03-08T16:11:10.594Z,2.80
2019-03-08T16:13:40.769Z,3.23
2019-03-08T16:16:10.617Z,3.50
2019-03-08T16:18:44.097Z,3.47
2019-03-08T16:21:13.064Z,3.30
2019-03-08T16:23:43.045Z,4.23
2019-03-08T16:26:21.187Z,7.00
2019-03-08T16:28:49.844Z,7.37
2019-03-08T16:31:33.599Z,4.50
2019-03-08T16:34:03.379Z,4.23
2019-03-08T16:36:43.887Z,3.30
2019-03-08T16:39:44.498Z,4.63
2019-03-08T16:42:23.197Z,3.58
2019-03-08T16:45:10.385Z,3.97
2019-03-08T16:48:01.662Z,4.70
2019-03-08T16:50:50.369Z,4.05
2019-03-08T16:53:26.262Z,4.23
2019-03-08T16:56:11.824Z,3.47
2019-03-08T16:59:03.280Z,4.35
2019-03-08T17:01:54.909Z,3.77
2019-03-08T17:04:52.630Z,3.40
2019-03-08T17:07:44.363Z,4.42
2019-03-08T17:10:30.611Z,5.17
2019-03-08T17:13:19.459Z,7.00
2019-03-08T17:16:08.830Z,5.07
2019-03-08T17:18:54.171Z,5.93
2019-03-08T17:21:33.261Z,7.87
2019-03-08T17:24:24.474Z,5.80
2019-03-08T17:27:02.441Z,3.03
2019-03-08T17:29:37.836Z,2.87
2019-03-08T17:32:29.485Z,3.10
2019-03-08T17:35:18.598Z,2.77
2019-03-08T17:37:54.749Z,2.73
2019-03-08T17:40:41.918Z,3.03
2019-03-08T17:43:26.868Z,2.80
2019-03-08T17:46:06.035Z,2.77
2019-03-08T17:48:44.180Z,3.27
2019-03-08T17:51:48.316Z,3.17
2019-03-08T17:54:42.850Z,3.00
2019-03-08T17:57:22.622Z,2.70
2019-03-08T18:00:06.028Z,3.00
2019-03-08T18:02:57.733Z,2.73
2019-03-08T18:06:04.664Z,3.53
2019-03-08T18:08:49.431Z,3.50
2019-03-08T18:11:32.375Z,3.30
2019-03-08T18:14:19.776Z,3.23
2019-03-08T18:16:58.723Z,2.80
2019-03-08T18:19:50.592Z,3.70
2019-03-08T18:22:33.188Z,5.40
2019-03-08T18:25:28.010Z,5.23
2019-03-08T18:28:16.646Z,6.73
2019-03-08T18:31:05.577Z,3.90
2019-03-08T18:33:43.194Z,3.37
2019-03-08T18:36:27.162Z,4.58
2019-03-08T18:39:10.633Z,16.07
2019-03-08T18:41:47.857Z,10.27
2019-03-08T18:44:55.350Z,15.72
2019-03-08T18:47:33.485Z,11.12
2019-03-08T18:50:20.778Z,5.10
2019-03-08T18:53:18.587Z,9.33
2019-03-08T18:55:56.820Z,9.10
2019-03-08T18:58:44.078Z,7.17
2019-03-08T19:01:23.664Z,6.33
2019-03-08T19:04:08.234Z,6.40
2019-03-08T19:06:56.932Z,7.67
2019-03-08T19:09:54.393Z,8.27
2019-03-08T19:12:48.859Z,7.53
2019-03-08T19:15:43.287Z,9.27
2019-03-08T19:18:44.008Z,8.10
2019-03-08T19:21:41.855Z,8.23
2019-03-08T19:24:39.545Z,11.33
2019-03-08T19:27:31.100Z,10.00
2019-03-08T19:30:13.619Z,10.83
2019-03-08T19:33:05.215Z,9.13
2019-03-08T19:35:54.145Z,10.33
2019-03-08T19:38:45.962Z,9.07
2019-03-08T19:41:28.297Z,9.20
2019-03-08T19:44:06.256Z,10.77
2019-03-08T19:46:58.207Z,10.13
2019-03-08T19:49:46.903Z,10.93
2019-03-08T19:52:26.057Z,16.67
2019-03-08T19:55:14.749Z,15.27
2019-03-08T19:58:10.919Z,12.30
2019-03-08T20:00:48.474Z,10.80
2019-03-08T20:03:35.962Z,10.77
2019-03-08T20:06:23.446Z,11.30
2019-03-08T20:09:17.624Z,11.27
2019-03-08T20:12:02.061Z,11.00
2019-03-08T20:14:41.209Z,11.10
2019-03-08T20:17:21.763Z,11.43
2019-03-08T20:20:12.927Z,10.57
2019-03-08T20:23:01.755Z,11.43
2019-03-08T20:25:42.054Z,9.73
2019-03-08T20:28:28.157Z,11.05
2019-03-08T20:31:16.352Z,10.17
2019-03-08T20:33:53.894Z,8.90
2019-03-08T20:36:32.122Z,9.97
2019-03-08T20:39:39.782Z,11.50
2019-03-08T20:42:30.248Z,10.50
2019-03-08T20:45:11.942Z,10.77
2019-03-08T20:47:41.610Z,9.00
2019-03-08T20:50:11.831Z,10.73
2019-03-08T20:52:42.095Z,10.57
2019-03-08T20:55:11.913Z,10.40
2019-03-08T20:57:41.654Z,10.00
2019-03-08T21:00:12.334Z,9.05
2019-03-08T21:02:42.356Z,9.00
2019-03-08T21:05:12.528Z,9.23
2019-03-08T21:07:42.290Z,10.30
2019-03-08T21:10:12.183Z,11.20
2019-03-08T21:12:43.265Z,9.93
2019-03-08T21:15:13.300Z,10.05
2019-03-08T21:17:43.117Z,9.00
2019-03-08T21:20:13.040Z,9.77
2019-03-08T21:22:42.709Z,8.67
2019-03-08T21:25:13.647Z,9.17
2019-03-08T21:27:43.404Z,8.40
2019-03-08T21:30:15.371Z,10.78
2019-03-08T21:32:45.272Z,11.03
2019-03-08T21:35:14.975Z,10.70
2019-03-08T21:37:44.985Z,7.73
2019-03-08T21:40:14.831Z,9.13
2019-03-08T21:42:44.585Z,8.80
2019-03-08T21:45:14.551Z,7.93
2019-03-08T21:47:44.706Z,8.10
2019-03-08T21:50:14.846Z,8.10
2019-03-08T21:52:44.671Z,9.60
2019-03-08T21:55:14.516Z,9.37
2019-03-08T21:57:44.360Z,10.30
2019-03-08T22:00:18.536Z,8.77
2019-03-08T22:02:48.804Z,8.77
2019-03-08T22:05:22.415Z,8.05
2019-03-08T22:07:52.121Z,6.90
2019-03-08T22:10:30.427Z,5.33
2019-03-08T22:13:00.119Z,5.53
2019-03-08T22:15:29.779Z,5.12
2019-03-08T22:17:59.606Z,5.30
2019-03-08T22:20:29.277Z,5.70
2019-03-08T22:22:58.956Z,5.27
2019-03-08T22:25:28.696Z,4.97
2019-03-08T22:27:58.612Z,5.80
2019-03-08T22:30:28.290Z,6.07
2019-03-08T22:32:58.161Z,5.73
2019-03-08T22:35:28.155Z,5.27
2019-03-08T22:37:57.826Z,5.00
2019-03-08T22:40:27.493Z,5.77
2019-03-08T22:42:57.144Z,5.33
2019-03-08T22:45:26.831Z,5.37
2019-03-08T22:47:56.568Z,5.37
2019-03-08T22:50:26.226Z,5.40
2019-03-08T22:52:55.922Z,5.90
2019-03-08T22:55:25.576Z,4.93
2019-03-08T22:57:55.303Z,5.13
2019-03-08T23:01:03.452Z,5.17
2019-03-08T23:03:33.857Z,4.97
2019-03-08T23:06:03.671Z,4.60
2019-03-08T23:08:33.580Z,5.83
2019-03-08T23:11:03.402Z,5.35
2019-03-08T23:13:33.064Z,4.43
2019-03-08T23:16:02.812Z,5.35
2019-03-08T23:18:32.477Z,4.43
2019-03-08T23:21:02.382Z,4.63
2019-03-08T23:23:32.276Z,4.80
2019-03-08T23:26:02.241Z,5.50
2019-03-08T23:28:53.730Z,4.80
2019-03-08T23:31:41.154Z,6.10
2019-03-08T23:34:10.982Z,5.20
2019-03-08T23:36:40.651Z,5.53
2019-03-08T23:39:10.458Z,6.17
2019-03-08T23:41:40.408Z,5.80
2019-03-08T23:44:10.082Z,7.33
2019-03-08T23:46:39.756Z,8.53
2019-03-08T23:49:09.442Z,6.93
2019-03-08T23:51:39.363Z,6.50
2019-03-08T23:54:09.020Z,6.72
2019-03-08T23:56:38.873Z,7.13
2019-03-08T23:59:08.888Z,7.83
